Terminal Aerodrome Forecast
Issued by NWS

Home | Current Version | Previous Version | Graphics & Text | Print | Product List | Glossary On
Versions: 1 2 3 4 5 6 7 8 9 10 11 12 13 14 15 16 17 18 19
000
FTUS43 KICT 202328
TAFRSL
TAF
KRSL 202328Z 2100/2124 12011KT P6SM -SHRA BKN100 OVC140
     FM210200 12011KT P6SM -SHRA OVC050
     FM210700 11011KT P6SM -SHRA OVC015
     FM211100 10011KT 6SM -SHRA OVC008
     FM211300 12012KT 5SM -RA BR OVC006
     FM211800 08009KT P6SM VCSH OVC006=

USA.gov is the U.S. government's official web portal to all federal, state and local government web resources and services.